sensor_id;sensor_type;location;lat;lon;timestamp;pressure;altitude;pressure_sealevel;temperature;humidity
51460;BME280;37534;39.772;2.718;2022-07-23T00:00:57;101409.59;;;25.39;82.55
51460;BME280;37534;39.772;2.718;2022-07-23T00:03:22;101424.81;;;25.47;82.26
51460;BME280;37534;39.772;2.718;2022-07-23T00:05:48;101409.09;;;25.34;81.92
51460;BME280;37534;39.772;2.718;2022-07-23T00:08:14;101419.53;;;25.47;82.12
51460;BME280;37534;39.772;2.718;2022-07-23T00:10:39;101417.63;;;25.49;82.98
51460;BME280;37534;39.772;2.718;2022-07-23T00:13:05;101421.94;;;25.50;82.55
51460;BME280;37534;39.772;2.718;2022-07-23T00:15:32;101425.31;;;25.41;83.02
51460;BME280;37534;39.772;2.718;2022-07-23T00:17:57;101422.91;;;25.27;84.49
51460;BME280;37534;39.772;2.718;2022-07-23T00:20:23;101419.75;;;25.21;85.06
51460;BME280;37534;39.772;2.718;2022-07-23T00:22:50;101425.84;;;25.22;84.34
51460;BME280;37534;39.772;2.718;2022-07-23T00:25:16;101423.69;;;25.16;84.40
51460;BME280;37534;39.772;2.718;2022-07-23T00:27:42;101424.53;;;25.16;84.32
51460;BME280;37534;39.772;2.718;2022-07-23T00:30:08;101413.69;;;25.08;84.53
51460;BME280;37534;39.772;2.718;2022-07-23T00:32:45;101432.44;;;25.16;84.44
51460;BME280;37534;39.772;2.718;2022-07-23T00:35:11;101421.63;;;25.08;83.78
51460;BME280;37534;39.772;2.718;2022-07-23T00:37:36;101425.69;;;25.01;84.60
51460;BME280;37534;39.772;2.718;2022-07-23T00:40:02;101430.25;;;24.99;85.18
51460;BME280;37534;39.772;2.718;2022-07-23T00:42:28;101436.63;;;24.96;86.78
51460;BME280;37534;39.772;2.718;2022-07-23T00:44:53;101439.16;;;24.98;86.71
51460;BME280;37534;39.772;2.718;2022-07-23T00:47:19;101447.06;;;24.98;87.35
51460;BME280;37534;39.772;2.718;2022-07-23T00:49:44;101430.47;;;24.96;87.13
51460;BME280;37534;39.772;2.718;2022-07-23T00:52:10;101442.94;;;24.94;87.46
51460;BME280;37534;39.772;2.718;2022-07-23T00:54:36;101452.06;;;24.90;90.15
51460;BME280;37534;39.772;2.718;2022-07-23T00:57:01;101451.69;;;24.83;90.78
51460;BME280;37534;39.772;2.718;2022-07-23T00:59:27;101447.09;;;24.74;92.10
51460;BME280;37534;39.772;2.718;2022-07-23T01:01:52;101447.41;;;24.69;93.33
51460;BME280;37534;39.772;2.718;2022-07-23T01:04:18;101453.19;;;24.74;94.64
51460;BME280;37534;39.772;2.718;2022-07-23T01:06:44;101465.75;;;24.95;92.81
51460;BME280;37534;39.772;2.718;2022-07-23T01:09:10;101464.06;;;24.94;93.47
51460;BME280;37534;39.772;2.718;2022-07-23T01:11:37;101455.13;;;24.72;94.94
51460;BME280;37534;39.772;2.718;2022-07-23T01:14:16;101461.19;;;24.61;96.62
51460;BME280;37534;39.772;2.718;2022-07-23T01:16:43;101455.06;;;24.61;97.26
51460;BME280;37534;39.772;2.718;2022-07-23T01:19:09;101463.97;;;24.71;95.07
51460;BME280;37534;39.772;2.718;2022-07-23T01:21:40;101448.41;;;24.68;92.99
51460;BME280;37534;39.772;2.718;2022-07-23T01:24:07;101446.69;;;24.67;93.16
51460;BME280;37534;39.772;2.718;2022-07-23T01:26:33;101449.84;;;24.72;90.50
51460;BME280;37534;39.772;2.718;2022-07-23T01:28:59;101435.41;;;24.65;90.62
51460;BME280;37534;39.772;2.718;2022-07-23T01:31:25;101438.38;;;24.60;91.27
51460;BME280;37534;39.772;2.718;2022-07-23T01:33:50;101441.78;;;24.62;89.13
51460;BME280;37534;39.772;2.718;2022-07-23T01:36:16;101437.47;;;24.48;91.21
51460;BME280;37534;39.772;2.718;2022-07-23T01:38:41;101430.13;;;24.41;93.70
51460;BME280;37534;39.772;2.718;2022-07-23T01:41:07;101430.56;;;24.35;94.72
51460;BME280;37534;39.772;2.718;2022-07-23T01:43:32;101433.09;;;24.36;97.18
51460;BME280;37534;39.772;2.718;2022-07-23T01:45:58;101429.22;;;24.29;98.01
51460;BME280;37534;39.772;2.718;2022-07-23T01:48:23;101430.16;;;24.28;100.00
51460;BME280;37534;39.772;2.718;2022-07-23T01:50:49;101428.25;;;24.30;100.00
51460;BME280;37534;39.772;2.718;2022-07-23T01:53:15;101435.03;;;24.34;100.00
51460;BME280;37534;39.772;2.718;2022-07-23T01:55:41;101443.31;;;24.41;100.00
51460;BME280;37534;39.772;2.718;2022-07-23T01:58:07;101435.75;;;24.36;100.00
51460;BME280;37534;39.772;2.718;2022-07-23T02:00:33;101445.81;;;24.42;100.00
51460;BME280;37534;39.772;2.718;2022-07-23T02:02:59;101440.34;;;24.45;100.00
51460;BME280;37534;39.772;2.718;2022-07-23T02:05:25;101429.63;;;24.60;100.00
51460;BME280;37534;39.772;2.718;2022-07-23T02:07:51;101436.41;;;24.51;100.00
51460;BME280;37534;39.772;2.718;2022-07-23T02:10:16;101451.47;;;24.38;100.00
51460;BME280;37534;39.772;2.718;2022-07-23T02:12:42;101446.28;;;24.36;100.00
51460;BME280;37534;39.772;2.718;2022-07-23T02:15:08;101445.06;;;24.29;100.00
51460;BME280;37534;39.772;2.718;2022-07-23T02:17:33;101439.63;;;24.06;100.00
51460;BME280;37534;39.772;2.718;2022-07-23T02:19:59;101448.22;;;23.97;100.00
51460;BME280;37534;39.772;2.718;2022-07-23T02:22:24;101443.72;;;24.10;100.00
51460;BME280;37534;39.772;2.718;2022-07-23T02:24:50;101440.56;;;24.05;100.00
51460;BME280;37534;39.772;2.718;2022-07-23T02:27:15;101438.72;;;23.95;100.00
51460;BME280;37534;39.772;2.718;2022-07-23T02:29:41;101448.34;;;23.83;100.00
51460;BME280;37534;39.772;2.718;2022-07-23T02:32:07;101444.44;;;23.88;100.00
51460;BME280;37534;39.772;2.718;2022-07-23T02:34:32;101450.97;;;23.83;100.00
51460;BME280;37534;39.772;2.718;2022-07-23T02:36:57;101442.94;;;23.71;100.00
51460;BME280;37534;39.772;2.718;2022-07-23T02:39:23;101428.59;;;23.63;100.00
51460;BME280;37534;39.772;2.718;2022-07-23T02:41:48;101434.22;;;23.58;100.00
51460;BME280;37534;39.772;2.718;2022-07-23T02:44:14;101421.69;;;23.49;100.00
51460;BME280;37534;39.772;2.718;2022-07-23T02:46:40;101424.44;;;23.47;100.00
51460;BME280;37534;39.772;2.718;2022-07-23T02:49:05;101418.72;;;23.53;100.00
51460;BME280;37534;39.772;2.718;2022-07-23T02:51:31;101426.41;;;23.69;100.00
51460;BME280;37534;39.772;2.718;2022-07-23T02:53:56;101424.09;;;23.65;100.00
51460;BME280;37534;39.772;2.718;2022-07-23T02:56:22;101421.84;;;23.71;100.00
51460;BME280;37534;39.772;2.718;2022-07-23T02:58:47;101418.06;;;23.63;100.00
51460;BME280;37534;39.772;2.718;2022-07-23T03:01:13;101416.63;;;23.46;100.00
51460;BME280;37534;39.772;2.718;2022-07-23T03:03:40;101420.09;;;23.33;100.00
51460;BME280;37534;39.772;2.718;2022-07-23T03:06:06;101414.53;;;23.25;100.00
51460;BME280;37534;39.772;2.718;2022-07-23T03:08:31;101412.53;;;23.16;100.00
51460;BME280;37534;39.772;2.718;2022-07-23T03:10:57;101417.25;;;23.11;100.00
51460;BME280;37534;39.772;2.718;2022-07-23T03:13:23;101424.41;;;23.09;100.00
51460;BME280;37534;39.772;2.718;2022-07-23T03:15:48;101417.84;;;23.02;100.00
51460;BME280;37534;39.772;2.718;2022-07-23T03:18:14;101421.63;;;22.97;100.00
51460;BME280;37534;39.772;2.718;2022-07-23T03:20:39;101413.00;;;22.95;100.00
51460;BME280;37534;39.772;2.718;2022-07-23T03:23:05;101414.47;;;23.00;100.00
51460;BME280;37534;39.772;2.718;2022-07-23T03:25:34;101415.22;;;23.02;100.00
51460;BME280;37534;39.772;2.718;2022-07-23T03:27:59;101420.31;;;23.05;100.00
51460;BME280;37534;39.772;2.718;2022-07-23T03:30:25;101413.41;;;23.02;100.00
51460;BME280;37534;39.772;2.718;2022-07-23T03:32:50;101415.78;;;23.07;100.00
51460;BME280;37534;39.772;2.718;2022-07-23T03:35:16;101412.94;;;23.10;100.00
51460;BME280;37534;39.772;2.718;2022-07-23T03:37:41;101409.88;;;23.16;100.00
51460;BME280;37534;39.772;2.718;2022-07-23T03:40:07;101406.72;;;23.11;100.00
51460;BME280;37534;39.772;2.718;2022-07-23T03:42:33;101412.09;;;23.09;100.00
51460;BME280;37534;39.772;2.718;2022-07-23T03:44:58;101419.16;;;23.09;100.00
51460;BME280;37534;39.772;2.718;2022-07-23T03:47:24;101418.84;;;23.13;100.00
51460;BME280;37534;39.772;2.718;2022-07-23T03:49:50;101420.13;;;23.08;100.00
51460;BME280;37534;39.772;2.718;2022-07-23T03:52:15;101411.94;;;22.98;100.00
51460;BME280;37534;39.772;2.718;2022-07-23T03:54:41;101428.03;;;22.93;100.00
51460;BME280;37534;39.772;2.718;2022-07-23T03:57:06;101411.84;;;22.87;100.00
51460;BME280;37534;39.772;2.718;2022-07-23T03:59:32;101432.03;;;22.86;100.00
51460;BME280;37534;39.772;2.718;2022-07-23T04:01:57;101417.91;;;22.74;100.00
51460;BME280;37534;39.772;2.718;2022-07-23T04:04:23;101425.16;;;22.71;100.00
51460;BME280;37534;39.772;2.718;2022-07-23T04:06:48;101410.19;;;22.58;100.00
51460;BME280;37534;39.772;2.718;2022-07-23T04:09:14;101428.91;;;22.67;100.00
51460;BME280;37534;39.772;2.718;2022-07-23T04:11:40;101411.00;;;22.46;100.00
51460;BME280;37534;39.772;2.718;2022-07-23T04:14:05;101427.84;;;22.56;100.00
51460;BME280;37534;39.772;2.718;2022-07-23T04:16:31;101421.50;;;22.46;100.00
51460;BME280;37534;39.772;2.718;2022-07-23T04:18:57;101424.94;;;22.34;100.00
51460;BME280;37534;39.772;2.718;2022-07-23T04:21:23;101425.22;;;22.15;100.00
51460;BME280;37534;39.772;2.718;2022-07-23T04:23:49;101437.69;;;22.26;100.00
51460;BME280;37534;39.772;2.718;2022-07-23T04:26:15;101436.00;;;22.25;100.00
51460;BME280;37534;39.772;2.718;2022-07-23T04:28:41;101443.13;;;22.37;100.00
51460;BME280;37534;39.772;2.718;2022-07-23T04:31:07;101442.38;;;22.20;100.00
51460;BME280;37534;39.772;2.718;2022-07-23T04:33:32;101443.72;;;22.13;100.00
51460;BME280;37534;39.772;2.718;2022-07-23T04:35:58;101442.59;;;22.17;100.00
51460;BME280;37534;39.772;2.718;2022-07-23T04:38:23;101438.09;;;22.05;100.00
51460;BME280;37534;39.772;2.718;2022-07-23T04:40:49;101442.41;;;22.06;100.00
51460;BME280;37534;39.772;2.718;2022-07-23T04:43:15;101443.72;;;22.13;100.00
51460;BME280;37534;39.772;2.718;2022-07-23T04:45:40;101439.88;;;22.19;100.00
51460;BME280;37534;39.772;2.718;2022-07-23T04:48:06;101440.53;;;22.23;100.00
51460;BME280;37534;39.772;2.718;2022-07-23T04:50:31;101448.22;;;22.11;100.00
51460;BME280;37534;39.772;2.718;2022-07-23T04:52:57;101436.59;;;22.01;100.00
51460;BME280;37534;39.772;2.718;2022-07-23T04:55:23;101447.09;;;22.01;100.00
51460;BME280;37534;39.772;2.718;2022-07-23T04:57:48;101439.53;;;21.96;100.00
51460;BME280;37534;39.772;2.718;2022-07-23T05:00:14;101437.47;;;22.01;100.00
51460;BME280;37534;39.772;2.718;2022-07-23T05:02:40;101431.47;;;21.99;99.42
51460;BME280;37534;39.772;2.718;2022-07-23T05:05:05;101441.00;;;22.00;98.57
51460;BME280;37534;39.772;2.718;2022-07-23T05:07:31;101443.16;;;22.08;98.36
51460;BME280;37534;39.772;2.718;2022-07-23T05:09:57;101455.81;;;22.16;97.19
51460;BME280;37534;39.772;2.718;2022-07-23T05:12:22;101450.56;;;22.16;97.61
51460;BME280;37534;39.772;2.718;2022-07-23T05:14:48;101453.28;;;22.14;98.83
51460;BME280;37534;39.772;2.718;2022-07-23T05:17:13;101452.47;;;22.14;99.38
51460;BME280;37534;39.772;2.718;2022-07-23T05:19:39;101448.03;;;22.14;99.96
51460;BME280;37534;39.772;2.718;2022-07-23T05:22:04;101448.97;;;22.13;99.59
51460;BME280;37534;39.772;2.718;2022-07-23T05:24:30;101444.25;;;22.18;100.00
51460;BME280;37534;39.772;2.718;2022-07-23T05:26:55;101436.47;;;22.17;100.00
51460;BME280;37534;39.772;2.718;2022-07-23T05:29:21;101438.81;;;22.21;100.00
51460;BME280;37534;39.772;2.718;2022-07-23T05:31:46;101435.44;;;22.19;100.00
51460;BME280;37534;39.772;2.718;2022-07-23T05:34:12;101437.66;;;22.40;100.00
51460;BME280;37534;39.772;2.718;2022-07-23T05:36:37;101434.94;;;22.42;99.59
51460;BME280;37534;39.772;2.718;2022-07-23T05:39:03;101448.41;;;22.37;100.00
51460;BME280;37534;39.772;2.718;2022-07-23T05:41:29;101443.44;;;22.32;100.00
51460;BME280;37534;39.772;2.718;2022-07-23T05:43:55;101457.03;;;22.39;100.00
51460;BME280;37534;39.772;2.718;2022-07-23T05:46:20;101436.38;;;22.33;100.00
51460;BME280;37534;39.772;2.718;2022-07-23T05:48:46;101450.94;;;22.38;99.07
51460;BME280;37534;39.772;2.718;2022-07-23T05:51:19;101451.34;;;22.45;97.92
51460;BME280;37534;39.772;2.718;2022-07-23T05:53:45;101450.00;;;22.52;97.18
51460;BME280;37534;39.772;2.718;2022-07-23T05:56:10;101452.59;;;22.67;97.09
51460;BME280;37534;39.772;2.718;2022-07-23T05:58:37;101462.56;;;22.89;95.69
51460;BME280;37534;39.772;2.718;2022-07-23T06:01:03;101453.13;;;22.99;97.14
51460;BME280;37534;39.772;2.718;2022-07-23T06:03:28;101452.00;;;23.16;96.07
51460;BME280;37534;39.772;2.718;2022-07-23T06:05:54;101445.72;;;23.31;91.42
51460;BME280;37534;39.772;2.718;2022-07-23T06:08:20;101458.56;;;23.49;91.94
51460;BME280;37534;39.772;2.718;2022-07-23T06:10:45;101449.38;;;23.54;86.60
51460;BME280;37534;39.772;2.718;2022-07-23T06:13:11;101460.66;;;23.69;86.52
51460;BME280;37534;39.772;2.718;2022-07-23T06:15:36;101468.25;;;23.87;81.69
51460;BME280;37534;39.772;2.718;2022-07-23T06:18:02;101463.56;;;24.03;80.29
51460;BME280;37534;39.772;2.718;2022-07-23T06:20:27;101463.25;;;24.08;79.91
51460;BME280;37534;39.772;2.718;2022-07-23T06:22:53;101461.41;;;24.21;78.91
51460;BME280;37534;39.772;2.718;2022-07-23T06:25:18;101455.09;;;24.24;79.00
51460;BME280;37534;39.772;2.718;2022-07-23T06:27:46;101459.25;;;24.39;78.10
51460;BME280;37534;39.772;2.718;2022-07-23T06:30:13;101455.94;;;24.48;78.55
51460;BME280;37534;39.772;2.718;2022-07-23T06:32:38;101457.47;;;24.64;75.42
51460;BME280;37534;39.772;2.718;2022-07-23T06:35:04;101441.69;;;24.75;71.56
51460;BME280;37534;39.772;2.718;2022-07-23T06:37:30;101448.94;;;24.84;67.35
51460;BME280;37534;39.772;2.718;2022-07-23T06:39:55;101455.94;;;25.08;66.09
51460;BME280;37534;39.772;2.718;2022-07-23T06:42:21;101453.97;;;25.23;66.77
51460;BME280;37534;39.772;2.718;2022-07-23T06:44:47;101447.75;;;25.35;65.14
51460;BME280;37534;39.772;2.718;2022-07-23T06:47:12;101459.78;;;25.62;63.55
51460;BME280;37534;39.772;2.718;2022-07-23T06:49:38;101452.22;;;25.80;64.74
51460;BME280;37534;39.772;2.718;2022-07-23T06:52:06;101451.38;;;25.91;64.28
51460;BME280;37534;39.772;2.718;2022-07-23T06:54:32;101459.44;;;26.12;62.39
51460;BME280;37534;39.772;2.718;2022-07-23T06:56:57;101448.19;;;26.31;59.32
51460;BME280;37534;39.772;2.718;2022-07-23T06:59:23;101453.53;;;26.52;58.69
51460;BME280;37534;39.772;2.718;2022-07-23T07:01:49;101440.88;;;26.67;59.92
51460;BME280;37534;39.772;2.718;2022-07-23T07:04:14;101452.56;;;26.85;59.94
51460;BME280;37534;39.772;2.718;2022-07-23T07:06:40;101449.38;;;27.03;58.93
51460;BME280;37534;39.772;2.718;2022-07-23T07:09:06;101451.56;;;27.19;58.04
51460;BME280;37534;39.772;2.718;2022-07-23T07:11:31;101445.25;;;27.31;56.53
51460;BME280;37534;39.772;2.718;2022-07-23T07:13:57;101441.53;;;27.43;56.96
51460;BME280;37534;39.772;2.718;2022-07-23T07:16:22;101436.31;;;27.63;56.80
51460;BME280;37534;39.772;2.718;2022-07-23T07:18:48;101444.78;;;27.87;55.81
51460;BME280;37534;39.772;2.718;2022-07-23T07:21:13;101443.31;;;28.04;55.91
51460;BME280;37534;39.772;2.718;2022-07-23T07:23:39;101435.78;;;28.19;57.54
51460;BME280;37534;39.772;2.718;2022-07-23T07:26:05;101441.97;;;28.39;57.75
51460;BME280;37534;39.772;2.718;2022-07-23T07:28:30;101448.41;;;28.56;61.31
51460;BME280;37534;39.772;2.718;2022-07-23T07:30:56;101449.41;;;28.75;58.54
51460;BME280;37534;39.772;2.718;2022-07-23T07:33:21;101443.38;;;28.82;59.56
51460;BME280;37534;39.772;2.718;2022-07-23T07:35:47;101448.38;;;28.95;58.85
51460;BME280;37534;39.772;2.718;2022-07-23T07:38:12;101451.72;;;29.07;56.45
51460;BME280;37534;39.772;2.718;2022-07-23T07:40:38;101449.19;;;29.25;51.55
51460;BME280;37534;39.772;2.718;2022-07-23T07:43:04;101446.06;;;29.39;52.00
51460;BME280;37534;39.772;2.718;2022-07-23T07:45:30;101448.78;;;29.57;48.25
51460;BME280;37534;39.772;2.718;2022-07-23T07:47:55;101438.94;;;29.68;46.41
51460;BME280;37534;39.772;2.718;2022-07-23T07:50:21;101449.94;;;29.83;46.20
51460;BME280;37534;39.772;2.718;2022-07-23T07:52:47;101448.91;;;29.93;45.61
51460;BME280;37534;39.772;2.718;2022-07-23T07:55:13;101461.41;;;30.11;44.25
51460;BME280;37534;39.772;2.718;2022-07-23T07:57:40;101456.09;;;30.29;43.40
51460;BME280;37534;39.772;2.718;2022-07-23T08:00:07;101457.00;;;30.47;40.12
51460;BME280;37534;39.772;2.718;2022-07-23T08:02:47;101457.44;;;30.61;38.43
51460;BME280;37534;39.772;2.718;2022-07-23T08:05:13;101455.53;;;30.71;39.29
51460;BME280;37534;39.772;2.718;2022-07-23T08:07:40;101455.75;;;30.78;38.63
51460;BME280;37534;39.772;2.718;2022-07-23T08:10:07;101459.09;;;30.98;39.06
51460;BME280;37534;39.772;2.718;2022-07-23T08:12:44;101456.16;;;31.09;38.64
51460;BME280;37534;39.772;2.718;2022-07-23T08:15:11;101456.88;;;31.19;37.67
51460;BME280;37534;39.772;2.718;2022-07-23T08:17:37;101462.63;;;31.33;37.22
51460;BME280;37534;39.772;2.718;2022-07-23T08:20:05;101460.84;;;31.41;38.49
51460;BME280;37534;39.772;2.718;2022-07-23T08:22:52;101462.13;;;31.55;39.10
51460;BME280;37534;39.772;2.718;2022-07-23T08:25:24;101467.19;;;31.75;38.85
51460;BME280;37534;39.772;2.718;2022-07-23T08:27:51;101466.59;;;31.89;38.27
51460;BME280;37534;39.772;2.718;2022-07-23T08:30:18;101467.13;;;32.01;39.40
51460;BME280;37534;39.772;2.718;2022-07-23T08:33:00;101454.16;;;32.06;39.41
51460;BME280;37534;39.772;2.718;2022-07-23T08:35:35;101465.19;;;32.19;41.77
51460;BME280;37534;39.772;2.718;2022-07-23T08:38:03;101460.03;;;32.26;41.23
51460;BME280;37534;39.772;2.718;2022-07-23T08:40:37;101464.22;;;32.45;38.98
51460;BME280;37534;39.772;2.718;2022-07-23T08:43:05;101449.69;;;32.56;37.74
51460;BME280;37534;39.772;2.718;2022-07-23T08:45:35;101455.06;;;32.72;37.08
51460;BME280;37534;39.772;2.718;2022-07-23T08:48:01;101460.41;;;32.89;36.25
51460;BME280;37534;39.772;2.718;2022-07-23T08:50:28;101465.06;;;32.95;35.20
51460;BME280;37534;39.772;2.718;2022-07-23T08:52:54;101444.03;;;32.92;35.52
51460;BME280;37534;39.772;2.718;2022-07-23T08:55:22;101461.53;;;33.03;34.76
51460;BME280;37534;39.772;2.718;2022-07-23T08:57:49;101465.22;;;33.18;35.58
51460;BME280;37534;39.772;2.718;2022-07-23T09:00:16;101473.75;;;33.30;43.06
51460;BME280;37534;39.772;2.718;2022-07-23T09:02:43;101473.69;;;33.38;46.21
51460;BME280;37534;39.772;2.718;2022-07-23T09:05:10;101467.66;;;33.44;50.22
51460;BME280;37534;39.772;2.718;2022-07-23T09:16:02;101481.38;;;33.49;51.61
51460;BME280;37534;39.772;2.718;2022-07-23T09:21:33;101493.50;;;33.68;50.63
51460;BME280;37534;39.772;2.718;2022-07-23T09:24:06;101479.59;;;33.81;51.23
51460;BME280;37534;39.772;2.718;2022-07-23T09:26:42;101489.41;;;33.89;50.95
51460;BME280;37534;39.772;2.718;2022-07-23T09:31:54;101490.19;;;34.06;50.69
51460;BME280;37534;39.772;2.718;2022-07-23T09:36:47;101485.50;;;34.00;52.70
51460;BME280;37534;39.772;2.718;2022-07-23T09:39:14;101499.16;;;34.13;50.65
51460;BME280;37534;39.772;2.718;2022-07-23T09:41:45;101485.78;;;34.13;54.20
51460;BME280;37534;39.772;2.718;2022-07-23T09:44:19;101500.47;;;34.17;53.52
51460;BME280;37534;39.772;2.718;2022-07-23T09:46:47;101505.84;;;34.17;53.72
51460;BME280;37534;39.772;2.718;2022-07-23T09:49:22;101506.28;;;33.98;52.16
51460;BME280;37534;39.772;2.718;2022-07-23T09:51:58;101507.56;;;34.10;52.61
51460;BME280;37534;39.772;2.718;2022-07-23T09:56:54;101492.53;;;34.32;50.14
51460;BME280;37534;39.772;2.718;2022-07-23T09:59:24;101495.00;;;34.42;47.82
51460;BME280;37534;39.772;2.718;2022-07-23T10:01:50;101505.28;;;34.53;47.20
51460;BME280;37534;39.772;2.718;2022-07-23T10:04:18;101487.34;;;34.54;46.59
51460;BME280;37534;39.772;2.718;2022-07-23T10:06:45;101495.47;;;34.69;47.42
51460;BME280;37534;39.772;2.718;2022-07-23T10:09:12;101498.13;;;34.69;46.38
51460;BME280;37534;39.772;2.718;2022-07-23T10:11:38;101488.81;;;34.64;42.90
51460;BME280;37534;39.772;2.718;2022-07-23T10:14:04;101485.09;;;34.65;48.25
51460;BME280;37534;39.772;2.718;2022-07-23T10:16:31;101494.03;;;34.81;46.96
51460;BME280;37534;39.772;2.718;2022-07-23T10:18:57;101490.56;;;34.95;46.35
51460;BME280;37534;39.772;2.718;2022-07-23T10:21:34;101480.19;;;34.92;47.91
51460;BME280;37534;39.772;2.718;2022-07-23T10:30:11;101499.03;;;34.38;57.11
51460;BME280;37534;39.772;2.718;2022-07-23T10:32:45;101495.47;;;34.22;57.82
51460;BME280;37534;39.772;2.718;2022-07-23T10:35:37;101496.75;;;34.26;57.31
51460;BME280;37534;39.772;2.718;2022-07-23T10:38:15;101493.38;;;34.33;57.76
51460;BME280;37534;39.772;2.718;2022-07-23T10:41:13;101494.53;;;34.38;58.43
51460;BME280;37534;39.772;2.718;2022-07-23T10:43:39;101502.94;;;34.50;59.13
51460;BME280;37534;39.772;2.718;2022-07-23T10:46:30;101502.94;;;34.50;58.04
51460;BME280;37534;39.772;2.718;2022-07-23T10:49:27;101505.72;;;34.42;60.88
51460;BME280;37534;39.772;2.718;2022-07-23T10:54:51;101504.28;;;34.54;62.81
51460;BME280;37534;39.772;2.718;2022-07-23T10:57:19;101505.63;;;34.50;62.32
51460;BME280;37534;39.772;2.718;2022-07-23T11:02:45;101504.09;;;34.33;62.84
51460;BME280;37534;39.772;2.718;2022-07-23T11:05:14;101514.84;;;34.24;62.78
51460;BME280;37534;39.772;2.718;2022-07-23T11:10:48;101505.09;;;34.32;59.73
51460;BME280;37534;39.772;2.718;2022-07-23T11:13:31;101513.13;;;34.32;61.49
51460;BME280;37534;39.772;2.718;2022-07-23T11:26:58;101497.84;;;34.87;44.53
51460;BME280;37534;39.772;2.718;2022-07-23T11:32:27;101485.25;;;35.25;38.88
51460;BME280;37534;39.772;2.718;2022-07-23T11:34:54;101481.56;;;35.26;37.99
51460;BME280;37534;39.772;2.718;2022-07-23T11:37:36;101480.81;;;35.47;35.75
51460;BME280;37534;39.772;2.718;2022-07-23T11:40:08;101478.22;;;35.54;33.91
51460;BME280;37534;39.772;2.718;2022-07-23T11:42:36;101487.47;;;35.66;36.45
51460;BME280;37534;39.772;2.718;2022-07-23T11:45:03;101483.59;;;35.84;37.79
51460;BME280;37534;39.772;2.718;2022-07-23T11:47:28;101483.81;;;36.04;39.00
51460;BME280;37534;39.772;2.718;2022-07-23T11:52:19;101471.09;;;36.12;36.60
51460;BME280;37534;39.772;2.718;2022-07-23T11:55:00;101474.47;;;36.00;30.62
51460;BME280;37534;39.772;2.718;2022-07-23T11:57:27;101477.53;;;35.96;33.40
51460;BME280;37534;39.772;2.718;2022-07-23T11:59:57;101479.38;;;35.96;31.69
51460;BME280;37534;39.772;2.718;2022-07-23T12:02:23;101472.25;;;36.03;32.15
51460;BME280;37534;39.772;2.718;2022-07-23T12:04:51;101472.72;;;36.13;30.58
51460;BME280;37534;39.772;2.718;2022-07-23T12:09:49;101469.91;;;36.00;35.06
51460;BME280;37534;39.772;2.718;2022-07-23T12:12:15;101460.78;;;35.94;34.14
51460;BME280;37534;39.772;2.718;2022-07-23T12:14:57;101471.72;;;35.93;30.41
51460;BME280;37534;39.772;2.718;2022-07-23T12:17:32;101463.13;;;36.04;32.69
51460;BME280;37534;39.772;2.718;2022-07-23T12:19:58;101464.03;;;36.11;31.82
51460;BME280;37534;39.772;2.718;2022-07-23T12:22:26;101460.19;;;35.99;33.06
51460;BME280;37534;39.772;2.718;2022-07-23T12:24:58;101460.66;;;36.03;34.54
51460;BME280;37534;39.772;2.718;2022-07-23T12:27:25;101448.06;;;36.03;33.71
51460;BME280;37534;39.772;2.718;2022-07-23T12:29:51;101457.78;;;36.04;31.81
51460;BME280;37534;39.772;2.718;2022-07-23T12:34:44;101446.28;;;36.10;32.76
51460;BME280;37534;39.772;2.718;2022-07-23T12:37:28;101447.94;;;36.11;33.38
51460;BME280;37534;39.772;2.718;2022-07-23T12:39:54;101439.94;;;35.96;32.60
51460;BME280;37534;39.772;2.718;2022-07-23T12:42:19;101445.03;;;35.91;33.25
51460;BME280;37534;39.772;2.718;2022-07-23T12:45:10;101449.44;;;35.99;33.36
51460;BME280;37534;39.772;2.718;2022-07-23T12:48:04;101448.81;;;35.97;31.86
51460;BME280;37534;39.772;2.718;2022-07-23T12:50:32;101458.00;;;35.88;32.18
51460;BME280;37534;39.772;2.718;2022-07-23T12:53:12;101450.84;;;35.73;34.46
51460;BME280;37534;39.772;2.718;2022-07-23T12:55:39;101443.78;;;35.72;33.40
51460;BME280;37534;39.772;2.718;2022-07-23T12:58:14;101445.34;;;35.67;35.12
51460;BME280;37534;39.772;2.718;2022-07-23T13:03:40;101451.75;;;35.81;35.41
51460;BME280;37534;39.772;2.718;2022-07-23T13:06:08;101449.50;;;35.84;36.37
51460;BME280;37534;39.772;2.718;2022-07-23T13:08:36;101450.97;;;35.87;39.19
51460;BME280;37534;39.772;2.718;2022-07-23T13:11:03;101445.41;;;35.88;37.29
51460;BME280;37534;39.772;2.718;2022-07-23T13:13:31;101457.91;;;35.96;37.57
51460;BME280;37534;39.772;2.718;2022-07-23T13:15:57;101449.31;;;35.86;35.38
51460;BME280;37534;39.772;2.718;2022-07-23T13:18:24;101459.28;;;35.92;35.87
51460;BME280;37534;39.772;2.718;2022-07-23T13:20:50;101437.50;;;35.80;37.08
51460;BME280;37534;39.772;2.718;2022-07-23T13:23:16;101439.22;;;35.88;35.34
51460;BME280;37534;39.772;2.718;2022-07-23T13:25:42;101447.16;;;35.96;34.67
51460;BME280;37534;39.772;2.718;2022-07-23T13:28:08;101440.63;;;35.84;35.81
51460;BME280;37534;39.772;2.718;2022-07-23T13:30:34;101453.53;;;35.95;34.17
51460;BME280;37534;39.772;2.718;2022-07-23T13:33:02;101439.47;;;35.93;33.62
51460;BME280;37534;39.772;2.718;2022-07-23T13:35:28;101446.44;;;35.87;33.46
51460;BME280;37534;39.772;2.718;2022-07-23T13:37:54;101445.22;;;35.90;33.73
51460;BME280;37534;39.772;2.718;2022-07-23T13:40:19;101439.59;;;35.85;35.07
51460;BME280;37534;39.772;2.718;2022-07-23T13:42:45;101435.16;;;35.62;34.92
51460;BME280;37534;39.772;2.718;2022-07-23T13:45:10;101449.50;;;35.84;34.85
51460;BME280;37534;39.772;2.718;2022-07-23T13:47:36;101451.50;;;35.97;34.56